sensor_id;sensor_type;location;lat;lon;timestamp;temperature;humidity
15409;DHT22;7803;48.130;13.788;2023-05-07T00:01:53;22.90;80.00
15409;DHT22;7803;48.130;13.788;2023-05-07T00:04:55;22.90;80.00
15409;DHT22;7803;48.130;13.788;2023-05-07T00:07:57;22.90;80.00
15409;DHT22;7803;48.130;13.788;2023-05-07T00:10:59;22.90;80.00
15409;DHT22;7803;48.130;13.788;2023-05-07T00:14:01;22.90;80.00
15409;DHT22;7803;48.130;13.788;2023-05-07T00:17:04;22.90;80.00
15409;DHT22;7803;48.130;13.788;2023-05-07T00:20:07;22.90;80.00
15409;DHT22;7803;48.130;13.788;2023-05-07T00:23:09;22.90;80.10
15409;DHT22;7803;48.130;13.788;2023-05-07T00:26:11;22.90;80.20
15409;DHT22;7803;48.130;13.788;2023-05-07T00:29:13;22.90;80.10
15409;DHT22;7803;48.130;13.788;2023-05-07T00:32:17;22.80;80.00
15409;DHT22;7803;48.130;13.788;2023-05-07T00:35:19;22.90;80.00
15409;DHT22;7803;48.130;13.788;2023-05-07T00:38:21;22.90;80.00
15409;DHT22;7803;48.130;13.788;2023-05-07T00:41:23;22.80;79.90
15409;DHT22;7803;48.130;13.788;2023-05-07T00:44:25;22.90;80.00
15409;DHT22;7803;48.130;13.788;2023-05-07T00:47:30;22.80;79.90
15409;DHT22;7803;48.130;13.788;2023-05-07T00:50:32;22.90;80.00
15409;DHT22;7803;48.130;13.788;2023-05-07T00:53:35;22.80;79.80
15409;DHT22;7803;48.130;13.788;2023-05-07T00:56:37;22.90;80.80
15409;DHT22;7803;48.130;13.788;2023-05-07T00:59:39;22.80;80.00
15409;DHT22;7803;48.130;13.788;2023-05-07T01:02:43;22.80;80.10
15409;DHT22;7803;48.130;13.788;2023-05-07T01:05:46;22.90;80.10
15409;DHT22;7803;48.130;13.788;2023-05-07T01:08:49;22.80;80.00
15409;DHT22;7803;48.130;13.788;2023-05-07T01:11:53;22.80;79.90
15409;DHT22;7803;48.130;13.788;2023-05-07T01:14:58;22.80;79.90
15409;DHT22;7803;48.130;13.788;2023-05-07T01:18:01;22.90;80.00
15409;DHT22;7803;48.130;13.788;2023-05-07T01:21:05;22.80;79.80
15409;DHT22;7803;48.130;13.788;2023-05-07T01:24:08;22.80;79.90
15409;DHT22;7803;48.130;13.788;2023-05-07T01:27:11;22.80;79.90
15409;DHT22;7803;48.130;13.788;2023-05-07T01:30:13;22.80;79.90
15409;DHT22;7803;48.130;13.788;2023-05-07T01:33:20;22.80;79.90
15409;DHT22;7803;48.130;13.788;2023-05-07T01:36:23;22.80;80.00
15409;DHT22;7803;48.130;13.788;2023-05-07T01:39:29;22.80;80.10
15409;DHT22;7803;48.130;13.788;2023-05-07T01:42:32;22.80;80.00
15409;DHT22;7803;48.130;13.788;2023-05-07T01:45:35;22.80;79.90
15409;DHT22;7803;48.130;13.788;2023-05-07T01:48:37;22.80;79.90
15409;DHT22;7803;48.130;13.788;2023-05-07T01:51:40;22.80;79.90
15409;DHT22;7803;48.130;13.788;2023-05-07T01:54:43;22.80;79.90
15409;DHT22;7803;48.130;13.788;2023-05-07T01:57:45;22.80;79.90
15409;DHT22;7803;48.130;13.788;2023-05-07T02:00:47;22.80;79.90
15409;DHT22;7803;48.130;13.788;2023-05-07T02:03:49;22.80;79.90
15409;DHT22;7803;48.130;13.788;2023-05-07T02:06:51;22.80;79.90
15409;DHT22;7803;48.130;13.788;2023-05-07T02:09:55;22.80;79.90
15409;DHT22;7803;48.130;13.788;2023-05-07T02:12:57;22.80;80.00
15409;DHT22;7803;48.130;13.788;2023-05-07T02:16:00;22.80;80.10
15409;DHT22;7803;48.130;13.788;2023-05-07T02:19:02;22.80;80.00
15409;DHT22;7803;48.130;13.788;2023-05-07T02:22:04;22.80;79.90
15409;DHT22;7803;48.130;13.788;2023-05-07T02:25:08;22.80;79.80
15409;DHT22;7803;48.130;13.788;2023-05-07T02:28:10;22.80;79.80
15409;DHT22;7803;48.130;13.788;2023-05-07T02:31:12;22.80;79.80
15409;DHT22;7803;48.130;13.788;2023-05-07T02:34:14;22.80;79.90
15409;DHT22;7803;48.130;13.788;2023-05-07T02:37:15;22.80;79.80
15409;DHT22;7803;48.130;13.788;2023-05-07T02:40:19;22.80;79.80
15409;DHT22;7803;48.130;13.788;2023-05-07T02:43:21;22.80;79.80
15409;DHT22;7803;48.130;13.788;2023-05-07T02:46:23;22.80;79.80
15409;DHT22;7803;48.130;13.788;2023-05-07T02:49:25;22.80;80.00
15409;DHT22;7803;48.130;13.788;2023-05-07T02:52:27;22.80;80.10
15409;DHT22;7803;48.130;13.788;2023-05-07T02:55:30;22.80;80.00
15409;DHT22;7803;48.130;13.788;2023-05-07T02:58:32;22.80;79.90
15409;DHT22;7803;48.130;13.788;2023-05-07T03:01:35;22.80;79.80
15409;DHT22;7803;48.130;13.788;2023-05-07T03:04:37;22.80;79.80
15409;DHT22;7803;48.130;13.788;2023-05-07T03:07:39;22.80;79.80
15409;DHT22;7803;48.130;13.788;2023-05-07T03:10:42;22.80;79.80
15409;DHT22;7803;48.130;13.788;2023-05-07T03:13:44;22.80;79.90
15409;DHT22;7803;48.130;13.788;2023-05-07T03:16:47;22.80;79.90
15409;DHT22;7803;48.130;13.788;2023-05-07T03:19:49;22.80;79.90
15409;DHT22;7803;48.130;13.788;2023-05-07T03:22:51;22.80;79.90
15409;DHT22;7803;48.130;13.788;2023-05-07T03:25:54;22.80;80.10
15409;DHT22;7803;48.130;13.788;2023-05-07T03:28:56;22.80;80.10
15409;DHT22;7803;48.130;13.788;2023-05-07T03:31:58;22.80;80.00
15409;DHT22;7803;48.130;13.788;2023-05-07T03:35:00;22.80;79.90
15409;DHT22;7803;48.130;13.788;2023-05-07T03:38:03;22.80;79.90
15409;DHT22;7803;48.130;13.788;2023-05-07T03:41:06;22.80;79.90
15409;DHT22;7803;48.130;13.788;2023-05-07T03:44:08;22.80;79.90
15409;DHT22;7803;48.130;13.788;2023-05-07T03:47:10;22.80;80.00
15409;DHT22;7803;48.130;13.788;2023-05-07T03:50:14;22.80;79.90
15409;DHT22;7803;48.130;13.788;2023-05-07T03:53:15;22.80;80.00
15409;DHT22;7803;48.130;13.788;2023-05-07T03:56:19;22.80;80.00
15409;DHT22;7803;48.130;13.788;2023-05-07T03:59:22;22.80;80.00
15409;DHT22;7803;48.130;13.788;2023-05-07T04:02:24;22.80;80.10
15409;DHT22;7803;48.130;13.788;2023-05-07T04:05:26;22.80;80.00
15409;DHT22;7803;48.130;13.788;2023-05-07T04:08:28;22.80;80.00
15409;DHT22;7803;48.130;13.788;2023-05-07T04:11:31;22.80;79.90
15409;DHT22;7803;48.130;13.788;2023-05-07T04:14:33;22.80;79.90
15409;DHT22;7803;48.130;13.788;2023-05-07T04:17:35;22.80;79.90
15409;DHT22;7803;48.130;13.788;2023-05-07T04:20:37;22.80;80.80
15409;DHT22;7803;48.130;13.788;2023-05-07T04:23:39;22.80;79.90
15409;DHT22;7803;48.130;13.788;2023-05-07T04:26:42;22.80;79.90
15409;DHT22;7803;48.130;13.788;2023-05-07T04:29:44;22.80;79.90
15409;DHT22;7803;48.130;13.788;2023-05-07T04:32:47;22.80;79.90
15409;DHT22;7803;48.130;13.788;2023-05-07T04:35:49;22.80;80.00
15409;DHT22;7803;48.130;13.788;2023-05-07T04:38:51;22.80;80.10
15409;DHT22;7803;48.130;13.788;2023-05-07T04:41:55;22.80;80.10
15409;DHT22;7803;48.130;13.788;2023-05-07T04:44:56;22.80;80.00
15409;DHT22;7803;48.130;13.788;2023-05-07T04:47:58;22.80;79.90
15409;DHT22;7803;48.130;13.788;2023-05-07T04:51:00;22.80;80.00
15409;DHT22;7803;48.130;13.788;2023-05-07T04:54:02;22.80;79.90
15409;DHT22;7803;48.130;13.788;2023-05-07T04:57:06;22.80;79.90
15409;DHT22;7803;48.130;13.788;2023-05-07T05:00:08;22.80;79.90
15409;DHT22;7803;48.130;13.788;2023-05-07T05:03:10;22.70;79.80
15409;DHT22;7803;48.130;13.788;2023-05-07T05:06:12;22.80;79.90
15409;DHT22;7803;48.130;13.788;2023-05-07T05:09:14;22.70;79.80
15409;DHT22;7803;48.130;13.788;2023-05-07T05:12:17;22.80;80.00
15409;DHT22;7803;48.130;13.788;2023-05-07T05:15:20;22.80;80.10
15409;DHT22;7803;48.130;13.788;2023-05-07T05:18:22;22.70;80.00
15409;DHT22;7803;48.130;13.788;2023-05-07T05:21:24;22.70;79.90
15409;DHT22;7803;48.130;13.788;2023-05-07T05:24:26;22.80;79.90
15409;DHT22;7803;48.130;13.788;2023-05-07T05:27:29;22.80;79.90
15409;DHT22;7803;48.130;13.788;2023-05-07T05:30:31;22.80;79.80
15409;DHT22;7803;48.130;13.788;2023-05-07T05:33:33;22.80;79.90
15409;DHT22;7803;48.130;13.788;2023-05-07T05:36:35;22.80;79.90
15409;DHT22;7803;48.130;13.788;2023-05-07T05:39:37;22.80;79.90
15409;DHT22;7803;48.130;13.788;2023-05-07T05:42:40;22.80;79.80
15409;DHT22;7803;48.130;13.788;2023-05-07T05:45:42;22.80;79.90
15409;DHT22;7803;48.130;13.788;2023-05-07T05:48:44;22.80;79.80
15409;DHT22;7803;48.130;13.788;2023-05-07T05:51:46;22.80;79.80
15409;DHT22;7803;48.130;13.788;2023-05-07T05:54:48;22.90;79.90
15409;DHT22;7803;48.130;13.788;2023-05-07T05:57:52;22.80;79.90
15409;DHT22;7803;48.130;13.788;2023-05-07T06:00:54;22.80;79.90
15409;DHT22;7803;48.130;13.788;2023-05-07T06:03:56;22.80;80.00
15409;DHT22;7803;48.130;13.788;2023-05-07T06:06:58;22.80;79.90
15409;DHT22;7803;48.130;13.788;2023-05-07T06:10:00;22.80;79.90
15409;DHT22;7803;48.130;13.788;2023-05-07T06:13:04;22.80;79.90
15409;DHT22;7803;48.130;13.788;2023-05-07T06:16:06;22.80;79.90
15409;DHT22;7803;48.130;13.788;2023-05-07T06:19:08;22.80;79.90
15409;DHT22;7803;48.130;13.788;2023-05-07T06:22:10;22.80;79.90
15409;DHT22;7803;48.130;13.788;2023-05-07T06:25:12;22.80;79.90
15409;DHT22;7803;48.130;13.788;2023-05-07T06:28:15;22.90;80.00
15409;DHT22;7803;48.130;13.788;2023-05-07T06:31:19;22.80;80.00
15409;DHT22;7803;48.130;13.788;2023-05-07T06:34:22;22.90;80.00
15409;DHT22;7803;48.130;13.788;2023-05-07T06:37:24;22.80;79.90
15409;DHT22;7803;48.130;13.788;2023-05-07T06:40:26;22.90;80.00
15409;DHT22;7803;48.130;13.788;2023-05-07T06:43:29;22.80;80.00
15409;DHT22;7803;48.130;13.788;2023-05-07T06:46:31;22.90;80.00
15409;DHT22;7803;48.130;13.788;2023-05-07T06:49:33;22.90;80.30
15409;DHT22;7803;48.130;13.788;2023-05-07T06:52:35;22.90;80.20
15409;DHT22;7803;48.130;13.788;2023-05-07T06:55:37;22.90;80.10
15409;DHT22;7803;48.130;13.788;2023-05-07T06:58:41;22.90;80.20
15409;DHT22;7803;48.130;13.788;2023-05-07T07:01:42;22.90;80.20
15409;DHT22;7803;48.130;13.788;2023-05-07T07:04:44;22.90;80.20
15409;DHT22;7803;48.130;13.788;2023-05-07T07:07:46;22.90;80.10
15409;DHT22;7803;48.130;13.788;2023-05-07T07:10:53;22.90;80.30
15409;DHT22;7803;48.130;13.788;2023-05-07T07:13:56;22.90;80.40
15409;DHT22;7803;48.130;13.788;2023-05-07T07:16:59;22.90;80.60
15409;DHT22;7803;48.130;13.788;2023-05-07T07:20:01;22.90;80.60
15409;DHT22;7803;48.130;13.788;2023-05-07T07:23:03;22.90;80.70
15409;DHT22;7803;48.130;13.788;2023-05-07T07:26:05;22.90;80.80
15409;DHT22;7803;48.130;13.788;2023-05-07T07:29:09;22.90;80.80
15409;DHT22;7803;48.130;13.788;2023-05-07T07:32:10;22.90;80.60
15409;DHT22;7803;48.130;13.788;2023-05-07T07:35:12;22.90;80.60
15409;DHT22;7803;48.130;13.788;2023-05-07T07:38:14;22.90;80.70
15409;DHT22;7803;48.130;13.788;2023-05-07T07:41:16;22.90;80.80
15409;DHT22;7803;48.130;13.788;2023-05-07T07:44:20;22.90;80.90
15409;DHT22;7803;48.130;13.788;2023-05-07T07:47:22;22.90;81.00
15409;DHT22;7803;48.130;13.788;2023-05-07T07:50:24;22.90;81.00
15409;DHT22;7803;48.130;13.788;2023-05-07T07:53:26;22.90;81.00
15409;DHT22;7803;48.130;13.788;2023-05-07T07:56:28;23.00;81.10
15409;DHT22;7803;48.130;13.788;2023-05-07T07:59:31;23.00;81.10
15409;DHT22;7803;48.130;13.788;2023-05-07T08:02:33;22.90;81.00
15409;DHT22;7803;48.130;13.788;2023-05-07T08:05:35;22.90;81.10
15409;DHT22;7803;48.130;13.788;2023-05-07T08:08:39;22.90;81.00
15409;DHT22;7803;48.130;13.788;2023-05-07T08:11:41;23.00;81.00
15409;DHT22;7803;48.130;13.788;2023-05-07T08:14:44;23.00;81.10
15409;DHT22;7803;48.130;13.788;2023-05-07T08:17:46;23.00;81.20
15409;DHT22;7803;48.130;13.788;2023-05-07T08:20:48;23.00;81.30
15409;DHT22;7803;48.130;13.788;2023-05-07T08:23:50;23.00;81.30
15409;DHT22;7803;48.130;13.788;2023-05-07T08:26:52;23.00;81.40
15409;DHT22;7803;48.130;13.788;2023-05-07T08:29:55;22.90;81.40
15409;DHT22;7803;48.130;13.788;2023-05-07T08:32:57;23.00;81.50
15409;DHT22;7803;48.130;13.788;2023-05-07T08:35:59;23.00;81.50
15409;DHT22;7803;48.130;13.788;2023-05-07T08:39:01;23.00;81.50
15409;DHT22;7803;48.130;13.788;2023-05-07T08:42:04;23.00;82.40
15409;DHT22;7803;48.130;13.788;2023-05-07T08:45:09;23.00;81.50
15409;DHT22;7803;48.130;13.788;2023-05-07T08:48:15;23.00;81.50
15409;DHT22;7803;48.130;13.788;2023-05-07T08:51:20;23.00;81.50
15409;DHT22;7803;48.130;13.788;2023-05-07T08:54:22;23.00;81.50
15409;DHT22;7803;48.130;13.788;2023-05-07T08:57:24;23.00;81.60
15409;DHT22;7803;48.130;13.788;2023-05-07T09:00:28;23.00;81.60
15409;DHT22;7803;48.130;13.788;2023-05-07T09:03:31;22.90;81.60
15409;DHT22;7803;48.130;13.788;2023-05-07T09:06:33;23.00;81.70
15409;DHT22;7803;48.130;13.788;2023-05-07T09:09:35;23.00;81.80
15409;DHT22;7803;48.130;13.788;2023-05-07T09:12:37;22.90;81.70
15409;DHT22;7803;48.130;13.788;2023-05-07T09:15:41;23.00;81.80
15409;DHT22;7803;48.130;13.788;2023-05-07T09:18:43;23.00;81.80
15409;DHT22;7803;48.130;13.788;2023-05-07T09:21:45;23.00;81.80
15409;DHT22;7803;48.130;13.788;2023-05-07T09:24:48;23.00;81.80
15409;DHT22;7803;48.130;13.788;2023-05-07T09:27:50;23.00;81.70
15409;DHT22;7803;48.130;13.788;2023-05-07T09:30:55;23.00;81.80
15409;DHT22;7803;48.130;13.788;2023-05-07T09:33:57;23.00;81.80
15409;DHT22;7803;48.130;13.788;2023-05-07T09:37:00;23.00;81.80
15409;DHT22;7803;48.130;13.788;2023-05-07T09:40:03;23.00;81.80
15409;DHT22;7803;48.130;13.788;2023-05-07T09:43:10;23.00;81.80
15409;DHT22;7803;48.130;13.788;2023-05-07T09:46:15;23.00;81.90
15409;DHT22;7803;48.130;13.788;2023-05-07T09:49:21;23.00;82.00
15409;DHT22;7803;48.130;13.788;2023-05-07T09:52:23;23.00;81.90
15409;DHT22;7803;48.130;13.788;2023-05-07T09:55:29;23.00;81.80
15409;DHT22;7803;48.130;13.788;2023-05-07T09:58:32;23.00;81.80
15409;DHT22;7803;48.130;13.788;2023-05-07T10:01:37;23.00;81.80
15409;DHT22;7803;48.130;13.788;2023-05-07T10:04:40;23.00;81.80
15409;DHT22;7803;48.130;13.788;2023-05-07T10:07:42;23.00;81.90
15409;DHT22;7803;48.130;13.788;2023-05-07T10:10:45;23.00;81.90
15409;DHT22;7803;48.130;13.788;2023-05-07T10:13:48;23.00;82.00
15409;DHT22;7803;48.130;13.788;2023-05-07T10:16:52;23.00;82.00
15409;DHT22;7803;48.130;13.788;2023-05-07T10:19:55;23.00;82.00
15409;DHT22;7803;48.130;13.788;2023-05-07T10:22:58;23.00;82.00
15409;DHT22;7803;48.130;13.788;2023-05-07T10:26:02;23.00;82.00
15409;DHT22;7803;48.130;13.788;2023-05-07T10:29:11;23.00;82.00
15409;DHT22;7803;48.130;13.788;2023-05-07T10:32:27;23.00;81.90
15409;DHT22;7803;48.130;13.788;2023-05-07T10:35:36;23.00;81.80
15409;DHT22;7803;48.130;13.788;2023-05-07T10:38:39;23.00;81.80
15409;DHT22;7803;48.130;13.788;2023-05-07T10:41:42;23.00;81.80
15409;DHT22;7803;48.130;13.788;2023-05-07T10:44:44;23.00;81.90
15409;DHT22;7803;48.130;13.788;2023-05-07T10:48:10;23.00;81.90
15409;DHT22;7803;48.130;13.788;2023-05-07T10:51:19;23.00;82.00
15409;DHT22;7803;48.130;13.788;2023-05-07T10:54:22;23.00;82.00
15409;DHT22;7803;48.130;13.788;2023-05-07T10:57:34;23.10;82.20
15409;DHT22;7803;48.130;13.788;2023-05-07T11:00:43;23.00;82.00
15409;DHT22;7803;48.130;13.788;2023-05-07T11:04:14;23.00;82.00
15409;DHT22;7803;48.130;13.788;2023-05-07T11:07:27;23.00;81.80
15409;DHT22;7803;48.130;13.788;2023-05-07T11:10:51;23.10;82.00
15409;DHT22;7803;48.130;13.788;2023-05-07T11:13:54;23.10;82.00
15409;DHT22;7803;48.130;13.788;2023-05-07T11:17:02;23.10;81.90
15409;DHT22;7803;48.130;13.788;2023-05-07T11:20:06;23.10;81.90
15409;DHT22;7803;48.130;13.788;2023-05-07T11:26:50;23.10;82.00
15409;DHT22;7803;48.130;13.788;2023-05-07T11:29:52;23.00;81.80
15409;DHT22;7803;48.130;13.788;2023-05-07T11:32:54;23.00;81.80
15409;DHT22;7803;48.130;13.788;2023-05-07T11:35:58;23.10;82.00
15409;DHT22;7803;48.130;13.788;2023-05-07T11:39:00;23.10;81.90
15409;DHT22;7803;48.130;13.788;2023-05-07T11:42:02;23.10;82.00
15409;DHT22;7803;48.130;13.788;2023-05-07T11:45:06;23.10;82.00
15409;DHT22;7803;48.130;13.788;2023-05-07T11:48:08;23.10;82.00
15409;DHT22;7803;48.130;13.788;2023-05-07T11:51:11;23.10;81.90
15409;DHT22;7803;48.130;13.788;2023-05-07T11:54:16;23.10;81.90
15409;DHT22;7803;48.130;13.788;2023-05-07T11:57:18;23.10;81.90
15409;DHT22;7803;48.130;13.788;2023-05-07T12:00:20;23.10;81.80
15409;DHT22;7803;48.130;13.788;2023-05-07T12:03:22;23.10;81.80
15409;DHT22;7803;48.130;13.788;2023-05-07T12:06:25;23.10;81.90
15409;DHT22;7803;48.130;13.788;2023-05-07T12:09:27;23.10;81.90
15409;DHT22;7803;48.130;13.788;2023-05-07T12:12:30;23.10;81.80
15409;DHT22;7803;48.130;13.788;2023-05-07T12:15:35;23.10;81.80
15409;DHT22;7803;48.130;13.788;2023-05-07T12:18:37;23.10;81.80
15409;DHT22;7803;48.130;13.788;2023-05-07T12:21:40;23.10;81.80
15409;DHT22;7803;48.130;13.788;2023-05-07T12:24:46;23.10;81.80
15409;DHT22;7803;48.130;13.788;2023-05-07T12:27:51;23.10;81.70
15409;DHT22;7803;48.130;13.788;2023-05-07T12:30:54;23.10;81.70
15409;DHT22;7803;48.130;13.788;2023-05-07T12:33:57;23.10;81.70
15409;DHT22;7803;48.130;13.788;2023-05-07T12:37:02;23.10;81.60
15409;DHT22;7803;48.130;13.788;2023-05-07T12:40:06;23.10;81.60
15409;DHT22;7803;48.130;13.788;2023-05-07T12:43:08;23.10;81.70
15409;DHT22;7803;48.130;13.788;2023-05-07T12:46:16;23.10;81.60
15409;DHT22;7803;48.130;13.788;2023-05-07T12:49:19;23.10;81.60
15409;DHT22;7803;48.130;13.788;2023-05-07T12:52:22;23.10;81.60
15409;DHT22;7803;48.130;13.788;2023-05-07T12:55:24;23.10;81.60
15409;DHT22;7803;48.130;13.788;2023-05-07T12:58:28;23.10;81.50
15409;DHT22;7803;48.130;13.788;2023-05-07T13:01:31;23.20;81.70
15409;DHT22;7803;48.130;13.788;2023-05-07T13:04:33;23.10;81.60
15409;DHT22;7803;48.130;13.788;2023-05-07T13:07:36;23.10;81.60
15409;DHT22;7803;48.130;13.788;2023-05-07T13:10:38;23.10;81.60
15409;DHT22;7803;48.130;13.788;2023-05-07T13:13:40;23.10;81.60
15409;DHT22;7803;48.130;13.788;2023-05-07T13:16:42;23.20;81.60
15409;DHT22;7803;48.130;13.788;2023-05-07T13:19:44;23.10;81.60
15409;DHT22;7803;48.130;13.788;2023-05-07T13:22:48;23.10;81.60
15409;DHT22;7803;48.130;13.788;2023-05-07T13:25:50;23.10;81.60
15409;DHT22;7803;48.130;13.788;2023-05-07T13:28:53;23.10;81.50
15409;DHT22;7803;48.130;13.788;2023-05-07T13:31:55;23.10;81.60
15409;DHT22;7803;48.130;13.788;2023-05-07T13:34:57;23.10;81.50
15409;DHT22;7803;48.130;13.788;2023-05-07T13:38:01;23.20;81.50
15409;DHT22;7803;48.130;13.788;2023-05-07T13:41:03;23.10;81.50
15409;DHT22;7803;48.130;13.788;2023-05-07T13:44:05;23.10;81.40
15409;DHT22;7803;48.130;13.788;2023-05-07T13:47:07;23.10;81.50
15409;DHT22;7803;48.130;13.788;2023-05-07T13:50:09;23.20;81.50
15409;DHT22;7803;48.130;13.788;2023-05-07T13:53:15;23.10;81.50
15409;DHT22;7803;48.130;13.788;2023-05-07T13:56:18;23.10;81.40
15409;DHT22;7803;48.130;13.788;2023-05-07T13:59:20;23.10;81.40
15409;DHT22;7803;48.130;13.788;2023-05-07T14:02:22;23.10;81.50
15409;DHT22;7803;48.130;13.788;2023-05-07T14:05:24;23.20;81.50
15409;DHT22;7803;48.130;13.788;2023-05-07T14:08:29;23.20;81.40
15409;DHT22;7803;48.130;13.788;2023-05-07T14:11:31;23.20;81.30
15409;DHT22;7803;48.130;13.788;2023-05-07T14:14:33;23.20;81.40
15409;DHT22;7803;48.130;13.788;2023-05-07T14:17:35;23.20;81.40
15409;DHT22;7803;48.130;13.788;2023-05-07T14:20:37;23.20;81.30
15409;DHT22;7803;48.130;13.788;2023-05-07T14:23:40;23.20;81.30
15409;DHT22;7803;48.130;13.788;2023-05-07T14:26:43;23.10;81.30
15409;DHT22;7803;48.130;13.788;2023-05-07T14:29:45;23.10;81.30
15409;DHT22;7803;48.130;13.788;2023-05-07T14:32:51;23.10;81.30
15409;DHT22;7803;48.130;13.788;2023-05-07T14:35:53;23.20;81.30
15409;DHT22;7803;48.130;13.788;2023-05-07T14:38:56;23.10;81.30
15409;DHT22;7803;48.130;13.788;2023-05-07T14:41:59;23.20;81.30
15409;DHT22;7803;48.130;13.788;2023-05-07T14:45:02;23.20;81.30
15409;DHT22;7803;48.130;13.788;2023-05-07T14:48:04;23.20;81.30
15409;DHT22;7803;48.130;13.788;2023-05-07T14:51:06;23.10;81.20
15409;DHT22;7803;48.130;13.788;2023-05-07T14:54:10;23.20;81.30
15409;DHT22;7803;48.130;13.788;2023-05-07T14:57:14;23.20;81.30
15409;DHT22;7803;48.130;13.788;2023-05-07T15:00:19;23.20;81.30
15409;DHT22;7803;48.130;13.788;2023-05-07T15:03:21;23.20;81.20
15409;DHT22;7803;48.130;13.788;2023-05-07T15:06:23;23.10;81.10
15409;DHT22;7803;48.130;13.788;2023-05-07T15:09:27;23.10;81.10
15409;DHT22;7803;48.130;13.788;2023-05-07T15:12:29;23.20;81.10
15409;DHT22;7803;48.130;13.788;2023-05-07T15:15:31;23.20;81.20
15409;DHT22;7803;48.130;13.788;2023-05-07T15:18:33;23.20;81.10
15409;DHT22;7803;48.130;13.788;2023-05-07T15:21:35;23.20;81.10
15409;DHT22;7803;48.130;13.788;2023-05-07T15:24:38;23.20;81.10
15409;DHT22;7803;48.130;13.788;2023-05-07T15:27:40;23.20;81.10
15409;DHT22;7803;48.130;13.788;2023-05-07T15:30:42;23.20;81.10
15409;DHT22;7803;48.130;13.788;2023-05-07T15:33:44;23.20;81.10
15409;DHT22;7803;48.130;13.788;2023-05-07T15:36:48;23.20;81.10
15409;DHT22;7803;48.130;13.788;2023-05-07T15:39:51;23.20;81.10
15409;DHT22;7803;48.130;13.788;2023-05-07T15:42:55;23.20;81.10
15409;DHT22;7803;48.130;13.788;2023-05-07T15:45:57;23.10;81.10
15409;DHT22;7803;48.130;13.788;2023-05-07T15:49:02;23.20;81.10
15409;DHT22;7803;48.130;13.788;2023-05-07T15:52:05;23.20;81.10
15409;DHT22;7803;48.130;13.788;2023-05-07T15:55:08;23.20;81.10
15409;DHT22;7803;48.130;13.788;2023-05-07T15:58:10;23.20;81.10
15409;DHT22;7803;48.130;13.788;2023-05-07T16:01:13;23.20;81.10
15409;DHT22;7803;48.130;13.788;2023-05-07T16:04:14;23.20;81.10
15409;DHT22;7803;48.130;13.788;2023-05-07T16:07:16;23.20;81.10
15409;DHT22;7803;48.130;13.788;2023-05-07T16:10:20;23.20;81.00
15409;DHT22;7803;48.130;13.788;2023-05-07T16:13:22;23.20;81.10
15409;DHT22;7803;48.130;13.788;2023-05-07T16:16:25;23.20;81.00
15409;DHT22;7803;48.130;13.788;2023-05-07T16:19:29;23.20;81.00
15409;DHT22;7803;48.130;13.788;2023-05-07T16:22:31;23.20;80.90
15409;DHT22;7803;48.130;13.788;2023-05-07T16:25:35;23.20;81.00
15409;DHT22;7803;48.130;13.788;2023-05-07T16:28:37;23.20;81.00
15409;DHT22;7803;48.130;13.788;2023-05-07T16:31:39;23.20;81.00
15409;DHT22;7803;48.130;13.788;2023-05-07T16:34:41;23.20;81.00
15409;DHT22;7803;48.130;13.788;2023-05-07T16:37:43;23.20;80.90
15409;DHT22;7803;48.130;13.788;2023-05-07T16:40:46;23.20;80.90
15409;DHT22;7803;48.130;13.788;2023-05-07T16:43:48;23.20;80.90
15409;DHT22;7803;48.130;13.788;2023-05-07T16:46:50;23.20;80.90
15409;DHT22;7803;48.130;13.788;2023-05-07T16:49:53;23.20;80.90
15409;DHT22;7803;48.130;13.788;2023-05-07T16:52:55;23.20;80.80
15409;DHT22;7803;48.130;13.788;2023-05-07T16:55:59;23.20;80.80
15409;DHT22;7803;48.130;13.788;2023-05-07T16:59:04;23.20;80.90
15409;DHT22;7803;48.130;13.788;2023-05-07T17:02:06;23.20;80.80
15409;DHT22;7803;48.130;13.788;2023-05-07T17:05:08;23.20;80.80
15409;DHT22;7803;48.130;13.788;2023-05-07T17:08:10;23.20;80.80
15409;DHT22;7803;48.130;13.788;2023-05-07T17:11:14;23.20;80.80
15409;DHT22;7803;48.130;13.788;2023-05-07T17:14:16;23.20;80.80
15409;DHT22;7803;48.130;13.788;2023-05-07T17:17:18;23.20;80.80
15409;DHT22;7803;48.130;13.788;2023-05-07T17:20:20;23.20;80.80
15409;DHT22;7803;48.130;13.788;2023-05-07T17:23:22;23.20;80.80
15409;DHT22;7803;48.130;13.788;2023-05-07T17:26:25;23.20;80.80
15409;DHT22;7803;48.130;13.788;2023-05-07T17:29:29;23.20;80.80
15409;DHT22;7803;48.130;13.788;2023-05-07T17:32:31;23.20;80.80
15409;DHT22;7803;48.130;13.788;2023-05-07T17:35:34;23.20;80.70
15409;DHT22;7803;48.130;13.788;2023-05-07T17:38:36;23.20;80.70
15409;DHT22;7803;48.130;13.788;2023-05-07T17:41:39;23.20;80.70
15409;DHT22;7803;48.130;13.788;2023-05-07T17:44:41;23.20;80.70
15409;DHT22;7803;48.130;13.788;2023-05-07T17:47:43;23.20;80.80
15409;DHT22;7803;48.130;13.788;2023-05-07T17:50:45;23.20;80.70
15409;DHT22;7803;48.130;13.788;2023-05-07T17:53:47;23.20;80.70
15409;DHT22;7803;48.130;13.788;2023-05-07T17:56:51;23.20;80.60
15409;DHT22;7803;48.130;13.788;2023-05-07T17:59:53;23.20;80.70
15409;DHT22;7803;48.130;13.788;2023-05-07T18:02:55;23.20;80.60
15409;DHT22;7803;48.130;13.788;2023-05-07T18:05:59;23.20;80.60
15409;DHT22;7803;48.130;13.788;2023-05-07T18:09:01;23.20;80.60
15409;DHT22;7803;48.130;13.788;2023-05-07T18:12:05;23.20;80.60
15409;DHT22;7803;48.130;13.788;2023-05-07T18:15:08;23.20;80.60
15409;DHT22;7803;48.130;13.788;2023-05-07T18:18:10;23.20;80.50
15409;DHT22;7803;48.130;13.788;2023-05-07T18:21:12;23.20;80.50
15409;DHT22;7803;48.130;13.788;2023-05-07T18:24:18;23.20;80.60
15409;DHT22;7803;48.130;13.788;2023-05-07T18:27:21;23.20;80.50
15409;DHT22;7803;48.130;13.788;2023-05-07T18:30:23;23.20;80.50
15409;DHT22;7803;48.130;13.788;2023-05-07T18:33:25;23.20;80.50
15409;DHT22;7803;48.130;13.788;2023-05-07T18:36:27;23.20;80.50
15409;DHT22;7803;48.130;13.788;2023-05-07T18:39:30;23.20;80.50
15409;DHT22;7803;48.130;13.788;2023-05-07T18:42:33;23.20;80.50
15409;DHT22;7803;48.130;13.788;2023-05-07T18:45:35;23.20;80.50
15409;DHT22;7803;48.130;13.788;2023-05-07T18:48:38;23.20;80.50
15409;DHT22;7803;48.130;13.788;2023-05-07T18:51:40;23.10;80.50
15409;DHT22;7803;48.130;13.788;2023-05-07T18:54:42;23.20;80.50
15409;DHT22;7803;48.130;13.788;2023-05-07T18:57:46;23.20;80.50
15409;DHT22;7803;48.130;13.788;2023-05-07T19:00:50;23.20;80.50
15409;DHT22;7803;48.130;13.788;2023-05-07T19:03:52;23.20;80.50
15409;DHT22;7803;48.130;13.788;2023-05-07T19:06:54;23.20;80.50
15409;DHT22;7803;48.130;13.788;2023-05-07T19:09:56;23.20;80.50
15409;DHT22;7803;48.130;13.788;2023-05-07T19:13:00;23.10;80.40
15409;DHT22;7803;48.130;13.788;2023-05-07T19:16:02;23.20;80.50
15409;DHT22;7803;48.130;13.788;2023-05-07T19:19:05;23.20;80.40